sensor_id;sensor_type;location;lat;lon;timestamp;temperature;humidity
1592;DHT22;789;51.612;7.510;2023-10-13T00:00:15;18.40;1.00
1592;DHT22;789;51.612;7.510;2023-10-13T00:02:56;18.40;1.00
1592;DHT22;789;51.612;7.510;2023-10-13T00:05:26;18.40;1.00
1592;DHT22;789;51.612;7.510;2023-10-13T00:07:56;18.30;1.00
1592;DHT22;789;51.612;7.510;2023-10-13T00:10:26;18.30;1.00
1592;DHT22;789;51.612;7.510;2023-10-13T00:12:53;18.30;1.00
1592;DHT22;789;51.612;7.510;2023-10-13T00:15:22;18.40;1.00
1592;DHT22;789;51.612;7.510;2023-10-13T00:17:53;18.40;1.00
1592;DHT22;789;51.612;7.510;2023-10-13T00:20:20;18.40;1.00
1592;DHT22;789;51.612;7.510;2023-10-13T00:23:00;18.40;1.00
1592;DHT22;789;51.612;7.510;2023-10-13T00:25:27;18.40;1.00
1592;DHT22;789;51.612;7.510;2023-10-13T00:28:00;18.40;1.00
1592;DHT22;789;51.612;7.510;2023-10-13T00:30:28;18.30;1.00
1592;DHT22;789;51.612;7.510;2023-10-13T00:32:59;18.30;1.00
1592;DHT22;789;51.612;7.510;2023-10-13T00:35:27;18.40;1.00
1592;DHT22;789;51.612;7.510;2023-10-13T00:37:55;18.40;1.00
1592;DHT22;789;51.612;7.510;2023-10-13T00:40:23;18.40;1.00
1592;DHT22;789;51.612;7.510;2023-10-13T00:43:07;18.40;1.00
1592;DHT22;789;51.612;7.510;2023-10-13T00:45:50;18.40;1.00
1592;DHT22;789;51.612;7.510;2023-10-13T00:48:22;18.40;1.00
1592;DHT22;789;51.612;7.510;2023-10-13T00:50:55;18.40;1.00
1592;DHT22;789;51.612;7.510;2023-10-13T00:53:23;18.40;1.00
1592;DHT22;789;51.612;7.510;2023-10-13T00:55:50;18.40;1.00
1592;DHT22;789;51.612;7.510;2023-10-13T00:58:22;18.30;1.00
1592;DHT22;789;51.612;7.510;2023-10-13T01:00:50;18.30;1.00
1592;DHT22;789;51.612;7.510;2023-10-13T01:03:22;18.30;1.00
1592;DHT22;789;51.612;7.510;2023-10-13T01:05:53;18.30;1.00
1592;DHT22;789;51.612;7.510;2023-10-13T01:08:31;18.30;1.00
1592;DHT22;789;51.612;7.510;2023-10-13T01:11:00;18.40;1.00
1592;DHT22;789;51.612;7.510;2023-10-13T01:13:25;18.40;1.00
1592;DHT22;789;51.612;7.510;2023-10-13T01:15:58;18.40;1.00
1592;DHT22;789;51.612;7.510;2023-10-13T01:18:24;18.40;1.00
1592;DHT22;789;51.612;7.510;2023-10-13T01:20:53;18.40;1.00
1592;DHT22;789;51.612;7.510;2023-10-13T01:23:26;18.40;1.00
1592;DHT22;789;51.612;7.510;2023-10-13T01:25:54;18.30;1.00
1592;DHT22;789;51.612;7.510;2023-10-13T01:28:20;18.30;1.00
1592;DHT22;789;51.612;7.510;2023-10-13T01:30:47;18.40;1.00
1592;DHT22;789;51.612;7.510;2023-10-13T01:33:15;18.40;1.00
1592;DHT22;789;51.612;7.510;2023-10-13T01:35:43;18.30;1.00
1592;DHT22;789;51.612;7.510;2023-10-13T01:38:13;18.40;1.00
1592;DHT22;789;51.612;7.510;2023-10-13T01:40:43;18.50;1.00
1592;DHT22;789;51.612;7.510;2023-10-13T01:43:11;18.40;1.00
1592;DHT22;789;51.612;7.510;2023-10-13T01:45:37;18.40;1.00
1592;DHT22;789;51.612;7.510;2023-10-13T01:48:15;18.50;1.00
1592;DHT22;789;51.612;7.510;2023-10-13T01:50:42;18.50;1.00
1592;DHT22;789;51.612;7.510;2023-10-13T01:53:13;18.50;1.00
1592;DHT22;789;51.612;7.510;2023-10-13T01:55:40;18.60;1.00
1592;DHT22;789;51.612;7.510;2023-10-13T01:58:10;18.60;1.00
1592;DHT22;789;51.612;7.510;2023-10-13T02:00:40;18.60;1.00
1592;DHT22;789;51.612;7.510;2023-10-13T02:03:09;18.50;1.00
1592;DHT22;789;51.612;7.510;2023-10-13T02:05:41;18.60;1.00
1592;DHT22;789;51.612;7.510;2023-10-13T02:08:13;18.60;1.00
1592;DHT22;789;51.612;7.510;2023-10-13T02:10:44;18.60;1.00
1592;DHT22;789;51.612;7.510;2023-10-13T02:13:15;18.60;1.00
1592;DHT22;789;51.612;7.510;2023-10-13T02:15:44;18.70;1.00
1592;DHT22;789;51.612;7.510;2023-10-13T02:18:14;18.70;1.00
1592;DHT22;789;51.612;7.510;2023-10-13T02:20:46;18.70;1.00
1592;DHT22;789;51.612;7.510;2023-10-13T02:23:20;18.60;1.00
1592;DHT22;789;51.612;7.510;2023-10-13T02:25:46;18.60;1.00
1592;DHT22;789;51.612;7.510;2023-10-13T02:28:14;18.60;1.00
1592;DHT22;789;51.612;7.510;2023-10-13T02:30:41;18.60;1.00
1592;DHT22;789;51.612;7.510;2023-10-13T02:33:11;18.60;1.00
1592;DHT22;789;51.612;7.510;2023-10-13T02:35:38;18.50;1.00
1592;DHT22;789;51.612;7.510;2023-10-13T02:38:15;18.60;1.00
1592;DHT22;789;51.612;7.510;2023-10-13T02:40:51;18.60;1.00
1592;DHT22;789;51.612;7.510;2023-10-13T02:43:21;18.60;1.00
1592;DHT22;789;51.612;7.510;2023-10-13T02:45:54;18.60;1.00
1592;DHT22;789;51.612;7.510;2023-10-13T02:48:25;18.70;1.00
1592;DHT22;789;51.612;7.510;2023-10-13T02:50:56;18.70;1.00
1592;DHT22;789;51.612;7.510;2023-10-13T02:53:27;18.70;1.00
1592;DHT22;789;51.612;7.510;2023-10-13T02:55:55;18.70;1.00
1592;DHT22;789;51.612;7.510;2023-10-13T02:58:32;18.80;1.00
1592;DHT22;789;51.612;7.510;2023-10-13T03:01:06;18.70;1.00
1592;DHT22;789;51.612;7.510;2023-10-13T03:03:45;18.70;1.00
1592;DHT22;789;51.612;7.510;2023-10-13T03:06:22;18.70;1.00
1592;DHT22;789;51.612;7.510;2023-10-13T03:08:57;18.80;1.00
1592;DHT22;789;51.612;7.510;2023-10-13T03:11:26;18.70;1.00
1592;DHT22;789;51.612;7.510;2023-10-13T03:14:00;18.80;1.00
1592;DHT22;789;51.612;7.510;2023-10-13T03:16:32;18.80;1.00
1592;DHT22;789;51.612;7.510;2023-10-13T03:19:00;18.80;1.00
1592;DHT22;789;51.612;7.510;2023-10-13T03:21:34;18.80;1.00
1592;DHT22;789;51.612;7.510;2023-10-13T03:24:02;18.80;1.00
1592;DHT22;789;51.612;7.510;2023-10-13T03:26:32;18.70;1.00
1592;DHT22;789;51.612;7.510;2023-10-13T03:29:05;18.70;1.00
1592;DHT22;789;51.612;7.510;2023-10-13T03:31:38;18.60;1.00
1592;DHT22;789;51.612;7.510;2023-10-13T03:34:05;18.60;1.00
1592;DHT22;789;51.612;7.510;2023-10-13T03:36:37;18.60;1.00
1592;DHT22;789;51.612;7.510;2023-10-13T03:39:23;18.60;1.00
1592;DHT22;789;51.612;7.510;2023-10-13T03:41:57;18.60;1.00
1592;DHT22;789;51.612;7.510;2023-10-13T03:44:26;18.70;1.00
1592;DHT22;789;51.612;7.510;2023-10-13T03:46:57;18.60;1.00
1592;DHT22;789;51.612;7.510;2023-10-13T03:49:34;18.60;1.00
1592;DHT22;789;51.612;7.510;2023-10-13T03:52:04;18.60;1.00
1592;DHT22;789;51.612;7.510;2023-10-13T03:54:31;18.60;1.00
1592;DHT22;789;51.612;7.510;2023-10-13T03:57:01;18.60;1.00
1592;DHT22;789;51.612;7.510;2023-10-13T03:59:37;18.60;1.00
1592;DHT22;789;51.612;7.510;2023-10-13T04:02:05;18.60;1.00
1592;DHT22;789;51.612;7.510;2023-10-13T04:04:37;18.60;1.00
1592;DHT22;789;51.612;7.510;2023-10-13T04:07:18;18.50;1.00
1592;DHT22;789;51.612;7.510;2023-10-13T04:10:07;18.60;1.00
1592;DHT22;789;51.612;7.510;2023-10-13T04:12:51;18.50;1.00
1592;DHT22;789;51.612;7.510;2023-10-13T04:15:37;18.50;1.00
1592;DHT22;789;51.612;7.510;2023-10-13T04:18:09;18.40;1.00
1592;DHT22;789;51.612;7.510;2023-10-13T04:20:56;18.40;1.00
1592;DHT22;789;51.612;7.510;2023-10-13T04:23:35;18.40;1.00
1592;DHT22;789;51.612;7.510;2023-10-13T04:26:24;18.40;1.00
1592;DHT22;789;51.612;7.510;2023-10-13T04:29:01;18.30;1.00
1592;DHT22;789;51.612;7.510;2023-10-13T04:31:37;18.30;1.00
1592;DHT22;789;51.612;7.510;2023-10-13T04:34:22;18.20;1.00
1592;DHT22;789;51.612;7.510;2023-10-13T04:36:53;18.20;1.00
1592;DHT22;789;51.612;7.510;2023-10-13T04:39:38;18.20;1.00
1592;DHT22;789;51.612;7.510;2023-10-13T04:42:05;18.30;1.00
1592;DHT22;789;51.612;7.510;2023-10-13T04:44:39;18.30;1.00
1592;DHT22;789;51.612;7.510;2023-10-13T04:47:15;18.30;1.00
1592;DHT22;789;51.612;7.510;2023-10-13T04:49:47;18.30;1.00
1592;DHT22;789;51.612;7.510;2023-10-13T04:52:17;18.40;1.00
1592;DHT22;789;51.612;7.510;2023-10-13T04:55:02;18.40;1.00
1592;DHT22;789;51.612;7.510;2023-10-13T04:57:44;18.40;1.00
1592;DHT22;789;51.612;7.510;2023-10-13T05:00:15;18.40;1.00
1592;DHT22;789;51.612;7.510;2023-10-13T05:03:02;18.40;1.00
1592;DHT22;789;51.612;7.510;2023-10-13T05:06:17;18.40;1.00
1592;DHT22;789;51.612;7.510;2023-10-13T05:09:02;18.40;1.00
1592;DHT22;789;51.612;7.510;2023-10-13T05:11:54;18.40;1.00
1592;DHT22;789;51.612;7.510;2023-10-13T05:14:39;18.40;1.00
1592;DHT22;789;51.612;7.510;2023-10-13T05:17:23;18.40;1.00
1592;DHT22;789;51.612;7.510;2023-10-13T05:20:09;18.40;1.00
1592;DHT22;789;51.612;7.510;2023-10-13T05:22:54;18.30;1.00
1592;DHT22;789;51.612;7.510;2023-10-13T05:25:38;18.40;1.00
1592;DHT22;789;51.612;7.510;2023-10-13T05:28:22;18.40;1.00
1592;DHT22;789;51.612;7.510;2023-10-13T05:31:06;18.30;1.00
1592;DHT22;789;51.612;7.510;2023-10-13T05:33:51;18.40;1.00
1592;DHT22;789;51.612;7.510;2023-10-13T05:36:48;18.40;1.00
1592;DHT22;789;51.612;7.510;2023-10-13T05:39:32;18.40;1.00
1592;DHT22;789;51.612;7.510;2023-10-13T05:42:16;18.40;1.00
1592;DHT22;789;51.612;7.510;2023-10-13T05:45:00;18.40;1.00
1592;DHT22;789;51.612;7.510;2023-10-13T05:47:47;18.30;1.00
1592;DHT22;789;51.612;7.510;2023-10-13T05:50:26;18.40;1.00
1592;DHT22;789;51.612;7.510;2023-10-13T05:53:16;18.40;1.00
1592;DHT22;789;51.612;7.510;2023-10-13T05:56:02;18.40;1.00
1592;DHT22;789;51.612;7.510;2023-10-13T05:58:46;18.40;1.00
1592;DHT22;789;51.612;7.510;2023-10-13T06:01:30;18.40;1.00
1592;DHT22;789;51.612;7.510;2023-10-13T06:04:15;18.40;1.00
1592;DHT22;789;51.612;7.510;2023-10-13T06:07:00;18.40;1.00
1592;DHT22;789;51.612;7.510;2023-10-13T06:09:45;18.30;1.00
1592;DHT22;789;51.612;7.510;2023-10-13T06:12:29;18.30;1.00
1592;DHT22;789;51.612;7.510;2023-10-13T06:15:14;18.30;1.00
1592;DHT22;789;51.612;7.510;2023-10-13T06:17:58;18.30;1.00
1592;DHT22;789;51.612;7.510;2023-10-13T06:20:42;18.20;1.00
1592;DHT22;789;51.612;7.510;2023-10-13T06:23:26;18.20;1.00
1592;DHT22;789;51.612;7.510;2023-10-13T06:26:12;18.30;1.00
1592;DHT22;789;51.612;7.510;2023-10-13T06:28:56;18.20;1.00
1592;DHT22;789;51.612;7.510;2023-10-13T06:31:23;18.20;1.00
1592;DHT22;789;51.612;7.510;2023-10-13T06:33:51;18.20;1.00
1592;DHT22;789;51.612;7.510;2023-10-13T06:36:20;18.20;1.00
1592;DHT22;789;51.612;7.510;2023-10-13T06:38:49;18.20;1.00
1592;DHT22;789;51.612;7.510;2023-10-13T06:41:45;18.20;1.00
1592;DHT22;789;51.612;7.510;2023-10-13T06:44:12;18.20;1.00
1592;DHT22;789;51.612;7.510;2023-10-13T06:46:42;18.20;1.00
1592;DHT22;789;51.612;7.510;2023-10-13T06:49:11;18.20;1.00
1592;DHT22;789;51.612;7.510;2023-10-13T06:51:39;18.20;1.00
1592;DHT22;789;51.612;7.510;2023-10-13T06:54:06;18.30;1.00
1592;DHT22;789;51.612;7.510;2023-10-13T06:56:47;18.20;1.00
1592;DHT22;789;51.612;7.510;2023-10-13T06:59:17;18.30;1.00
1592;DHT22;789;51.612;7.510;2023-10-13T07:01:45;18.30;1.00
1592;DHT22;789;51.612;7.510;2023-10-13T07:04:13;18.30;1.00
1592;DHT22;789;51.612;7.510;2023-10-13T07:06:47;18.40;1.00
1592;DHT22;789;51.612;7.510;2023-10-13T07:09:15;18.40;1.00
1592;DHT22;789;51.612;7.510;2023-10-13T07:12:06;18.50;1.00
1592;DHT22;789;51.612;7.510;2023-10-13T07:14:45;18.50;1.00
1592;DHT22;789;51.612;7.510;2023-10-13T07:17:17;18.60;1.00
1592;DHT22;789;51.612;7.510;2023-10-13T07:19:49;18.70;1.00
1592;DHT22;789;51.612;7.510;2023-10-13T07:22:21;18.80;1.00
1592;DHT22;789;51.612;7.510;2023-10-13T07:24:49;18.90;1.00
1592;DHT22;789;51.612;7.510;2023-10-13T07:27:19;19.00;1.00
1592;DHT22;789;51.612;7.510;2023-10-13T07:29:50;19.10;1.00
1592;DHT22;789;51.612;7.510;2023-10-13T07:32:38;19.10;1.00
1592;DHT22;789;51.612;7.510;2023-10-13T07:35:10;19.30;1.00
1592;DHT22;789;51.612;7.510;2023-10-13T07:37:37;19.30;1.00
1592;DHT22;789;51.612;7.510;2023-10-13T07:40:07;19.40;1.00
1592;DHT22;789;51.612;7.510;2023-10-13T07:42:49;19.60;1.00
1592;DHT22;789;51.612;7.510;2023-10-13T07:45:16;19.80;1.00
1592;DHT22;789;51.612;7.510;2023-10-13T07:47:50;20.00;1.00
1592;DHT22;789;51.612;7.510;2023-10-13T07:50:17;20.10;1.00
1592;DHT22;789;51.612;7.510;2023-10-13T07:52:50;20.20;1.00
1592;DHT22;789;51.612;7.510;2023-10-13T07:55:24;20.30;1.00
1592;DHT22;789;51.612;7.510;2023-10-13T07:57:53;20.30;1.00
1592;DHT22;789;51.612;7.510;2023-10-13T08:00:20;20.30;1.00
1592;DHT22;789;51.612;7.510;2023-10-13T08:03:04;20.50;1.00
1592;DHT22;789;51.612;7.510;2023-10-13T08:05:57;20.60;1.00
1592;DHT22;789;51.612;7.510;2023-10-13T08:08:30;20.90;1.00
1592;DHT22;789;51.612;7.510;2023-10-13T08:11:03;21.10;1.00
1592;DHT22;789;51.612;7.510;2023-10-13T08:13:41;21.20;1.00
1592;DHT22;789;51.612;7.510;2023-10-13T08:16:12;21.30;1.00
1592;DHT22;789;51.612;7.510;2023-10-13T08:18:46;21.40;1.00
1592;DHT22;789;51.612;7.510;2023-10-13T08:21:14;21.40;1.00
1592;DHT22;789;51.612;7.510;2023-10-13T08:23:48;21.80;1.00
1592;DHT22;789;51.612;7.510;2023-10-13T08:26:27;22.50;1.00
1592;DHT22;789;51.612;7.510;2023-10-13T08:29:13;23.20;1.00
1592;DHT22;789;51.612;7.510;2023-10-13T08:31:54;23.90;1.00
1592;DHT22;789;51.612;7.510;2023-10-13T08:34:39;24.70;1.00
1592;DHT22;789;51.612;7.510;2023-10-13T08:37:25;25.70;1.00
1592;DHT22;789;51.612;7.510;2023-10-13T08:39:55;26.70;1.00
1592;DHT22;789;51.612;7.510;2023-10-13T08:42:47;27.10;1.00
1592;DHT22;789;51.612;7.510;2023-10-13T08:45:39;27.70;1.00
1592;DHT22;789;51.612;7.510;2023-10-13T08:48:24;27.30;1.00
1592;DHT22;789;51.612;7.510;2023-10-13T08:51:01;27.20;1.00
1592;DHT22;789;51.612;7.510;2023-10-13T08:53:38;27.60;1.00
1592;DHT22;789;51.612;7.510;2023-10-13T08:56:12;27.70;1.00
1592;DHT22;789;51.612;7.510;2023-10-13T08:58:45;28.10;1.00
1592;DHT22;789;51.612;7.510;2023-10-13T09:01:32;28.10;1.00
1592;DHT22;789;51.612;7.510;2023-10-13T09:04:14;28.40;1.00
1592;DHT22;789;51.612;7.510;2023-10-13T09:06:54;28.50;1.00
1592;DHT22;789;51.612;7.510;2023-10-13T09:09:44;28.60;1.00
1592;DHT22;789;51.612;7.510;2023-10-13T09:12:25;28.30;1.00
1592;DHT22;789;51.612;7.510;2023-10-13T09:15:02;27.90;1.00
1592;DHT22;789;51.612;7.510;2023-10-13T09:17:45;27.70;1.00
1592;DHT22;789;51.612;7.510;2023-10-13T09:20:27;27.80;1.00
1592;DHT22;789;51.612;7.510;2023-10-13T09:22:58;28.10;1.00
1592;DHT22;789;51.612;7.510;2023-10-13T09:25:34;28.20;1.00
1592;DHT22;789;51.612;7.510;2023-10-13T09:28:03;28.10;1.00
1592;DHT22;789;51.612;7.510;2023-10-13T09:30:42;27.90;1.00
1592;DHT22;789;51.612;7.510;2023-10-13T09:33:11;27.80;1.00
1592;DHT22;789;51.612;7.510;2023-10-13T09:35:43;27.70;1.00
1592;DHT22;789;51.612;7.510;2023-10-13T09:38:15;28.00;1.00
1592;DHT22;789;51.612;7.510;2023-10-13T09:40:42;28.30;1.00
1592;DHT22;789;51.612;7.510;2023-10-13T09:43:16;28.20;1.00
1592;DHT22;789;51.612;7.510;2023-10-13T09:45:46;28.60;1.00
1592;DHT22;789;51.612;7.510;2023-10-13T09:48:32;29.10;1.00
1592;DHT22;789;51.612;7.510;2023-10-13T09:51:00;29.30;1.00
1592;DHT22;789;51.612;7.510;2023-10-13T09:53:28;29.10;1.00
1592;DHT22;789;51.612;7.510;2023-10-13T09:56:02;29.50;1.00
1592;DHT22;789;51.612;7.510;2023-10-13T09:58:42;30.00;1.00
1592;DHT22;789;51.612;7.510;2023-10-13T10:01:17;30.20;1.00
1592;DHT22;789;51.612;7.510;2023-10-13T10:03:48;30.60;1.00
1592;DHT22;789;51.612;7.510;2023-10-13T10:06:33;30.70;1.00
1592;DHT22;789;51.612;7.510;2023-10-13T10:09:08;31.60;1.00
1592;DHT22;789;51.612;7.510;2023-10-13T10:12:01;32.30;1.00
1592;DHT22;789;51.612;7.510;2023-10-13T10:14:57;31.50;1.00
1592;DHT22;789;51.612;7.510;2023-10-13T10:17:41;30.90;1.00
1592;DHT22;789;51.612;7.510;2023-10-13T10:20:10;31.00;1.00
1592;DHT22;789;51.612;7.510;2023-10-13T10:22:55;31.20;1.00
1592;DHT22;789;51.612;7.510;2023-10-13T10:25:29;31.40;1.00
1592;DHT22;789;51.612;7.510;2023-10-13T10:28:01;31.60;1.00
1592;DHT22;789;51.612;7.510;2023-10-13T10:30:31;31.50;1.00
1592;DHT22;789;51.612;7.510;2023-10-13T10:33:00;31.00;1.00
1592;DHT22;789;51.612;7.510;2023-10-13T10:35:34;31.10;1.00
1592;DHT22;789;51.612;7.510;2023-10-13T10:38:07;30.50;1.00
1592;DHT22;789;51.612;7.510;2023-10-13T10:40:50;30.70;1.00
1592;DHT22;789;51.612;7.510;2023-10-13T10:43:19;30.80;1.00
1592;DHT22;789;51.612;7.510;2023-10-13T10:45:46;30.50;1.00
1592;DHT22;789;51.612;7.510;2023-10-13T10:48:16;29.90;1.00
1592;DHT22;789;51.612;7.510;2023-10-13T10:50:53;29.20;1.00
1592;DHT22;789;51.612;7.510;2023-10-13T10:53:21;28.70;1.00
1592;DHT22;789;51.612;7.510;2023-10-13T10:56:04;28.40;1.00
1592;DHT22;789;51.612;7.510;2023-10-13T10:58:34;28.30;1.00
1592;DHT22;789;51.612;7.510;2023-10-13T11:01:09;27.90;1.00
1592;DHT22;789;51.612;7.510;2023-10-13T11:03:37;27.50;1.00
1592;DHT22;789;51.612;7.510;2023-10-13T11:06:13;27.00;1.00
1592;DHT22;789;51.612;7.510;2023-10-13T11:08:44;26.70;1.00
1592;DHT22;789;51.612;7.510;2023-10-13T11:11:27;26.30;1.00
1592;DHT22;789;51.612;7.510;2023-10-13T11:13:56;26.00;1.00
1592;DHT22;789;51.612;7.510;2023-10-13T11:16:45;25.70;1.00
1592;DHT22;789;51.612;7.510;2023-10-13T11:19:16;25.70;1.00
1592;DHT22;789;51.612;7.510;2023-10-13T11:21:47;25.80;1.00
1592;DHT22;789;51.612;7.510;2023-10-13T11:24:14;26.20;1.00
1592;DHT22;789;51.612;7.510;2023-10-13T11:26:43;27.00;1.00
1592;DHT22;789;51.612;7.510;2023-10-13T11:29:15;27.50;1.00
1592;DHT22;789;51.612;7.510;2023-10-13T11:31:45;27.40;1.00
1592;DHT22;789;51.612;7.510;2023-10-13T11:34:19;27.50;1.00
1592;DHT22;789;51.612;7.510;2023-10-13T11:36:47;27.50;1.00
1592;DHT22;789;51.612;7.510;2023-10-13T11:39:14;27.40;1.00
1592;DHT22;789;51.612;7.510;2023-10-13T11:41:48;27.20;1.00
1592;DHT22;789;51.612;7.510;2023-10-13T11:44:20;27.10;1.00
1592;DHT22;789;51.612;7.510;2023-10-13T11:47:08;26.80;1.00
1592;DHT22;789;51.612;7.510;2023-10-13T11:49:58;26.50;1.00
1592;DHT22;789;51.612;7.510;2023-10-13T11:52:26;26.80;1.00
1592;DHT22;789;51.612;7.510;2023-10-13T11:54:55;27.30;1.00
1592;DHT22;789;51.612;7.510;2023-10-13T11:57:22;27.50;1.00
1592;DHT22;789;51.612;7.510;2023-10-13T11:59:49;27.90;1.00
1592;DHT22;789;51.612;7.510;2023-10-13T12:02:41;28.40;1.00
1592;DHT22;789;51.612;7.510;2023-10-13T12:05:26;29.50;1.00
1592;DHT22;789;51.612;7.510;2023-10-13T12:08:05;30.40;1.00
1592;DHT22;789;51.612;7.510;2023-10-13T12:10:45;30.80;1.00
1592;DHT22;789;51.612;7.510;2023-10-13T12:13:25;30.90;1.00
1592;DHT22;789;51.612;7.510;2023-10-13T12:15:52;30.70;1.00
1592;DHT22;789;51.612;7.510;2023-10-13T12:18:22;30.30;1.00
1592;DHT22;789;51.612;7.510;2023-10-13T12:20:49;29.80;1.00
1592;DHT22;789;51.612;7.510;2023-10-13T12:23:17;29.30;1.00
1592;DHT22;789;51.612;7.510;2023-10-13T12:25:45;28.60;1.00
1592;DHT22;789;51.612;7.510;2023-10-13T12:28:23;28.10;1.00
1592;DHT22;789;51.612;7.510;2023-10-13T12:30:53;27.70;1.00
1592;DHT22;789;51.612;7.510;2023-10-13T12:33:20;27.30;1.00
1592;DHT22;789;51.612;7.510;2023-10-13T12:36:06;26.90;1.00
1592;DHT22;789;51.612;7.510;2023-10-13T12:38:36;26.70;1.00
1592;DHT22;789;51.612;7.510;2023-10-13T12:41:05;26.60;1.00
1592;DHT22;789;51.612;7.510;2023-10-13T12:43:49;26.50;1.00
1592;DHT22;789;51.612;7.510;2023-10-13T12:46:34;26.50;1.00
1592;DHT22;789;51.612;7.510;2023-10-13T12:49:18;26.30;1.00
1592;DHT22;789;51.612;7.510;2023-10-13T12:52:04;26.30;1.00
1592;DHT22;789;51.612;7.510;2023-10-13T12:54:32;26.30;1.00
1592;DHT22;789;51.612;7.510;2023-10-13T12:57:01;26.20;1.00
1592;DHT22;789;51.612;7.510;2023-10-13T12:59:34;26.20;1.00
1592;DHT22;789;51.612;7.510;2023-10-13T13:02:00;26.10;1.00
1592;DHT22;789;51.612;7.510;2023-10-13T13:04:32;26.20;1.00
1592;DHT22;789;51.612;7.510;2023-10-13T13:07:02;26.20;1.00
1592;DHT22;789;51.612;7.510;2023-10-13T13:09:31;26.20;1.00
1592;DHT22;789;51.612;7.510;2023-10-13T13:12:03;26.30;1.00
1592;DHT22;789;51.612;7.510;2023-10-13T13:14:32;26.10;1.00
1592;DHT22;789;51.612;7.510;2023-10-13T13:17:00;26.10;1.00
1592;DHT22;789;51.612;7.510;2023-10-13T13:19:31;26.10;1.00
1592;DHT22;789;51.612;7.510;2023-10-13T13:22:01;26.00;1.00
1592;DHT22;789;51.612;7.510;2023-10-13T13:24:29;25.80;1.00
1592;DHT22;789;51.612;7.510;2023-10-13T13:26:58;25.80;1.00
1592;DHT22;789;51.612;7.510;2023-10-13T13:29:29;25.80;1.00
1592;DHT22;789;51.612;7.510;2023-10-13T13:31:56;25.80;1.00
1592;DHT22;789;51.612;7.510;2023-10-13T13:34:25;25.80;1.00
1592;DHT22;789;51.612;7.510;2023-10-13T13:36:52;25.80;1.00
1592;DHT22;789;51.612;7.510;2023-10-13T13:39:19;25.90;1.00
1592;DHT22;789;51.612;7.510;2023-10-13T13:41:55;25.80;1.00
1592;DHT22;789;51.612;7.510;2023-10-13T13:44:24;25.60;1.00
1592;DHT22;789;51.612;7.510;2023-10-13T13:46:55;25.60;1.00
1592;DHT22;789;51.612;7.510;2023-10-13T13:49:23;25.60;1.00
1592;DHT22;789;51.612;7.510;2023-10-13T13:51:55;25.70;1.00
1592;DHT22;789;51.612;7.510;2023-10-13T13:54:22;25.70;1.00
1592;DHT22;789;51.612;7.510;2023-10-13T13:56:53;25.60;1.00
1592;DHT22;789;51.612;7.510;2023-10-13T13:59:20;25.60;1.00
1592;DHT22;789;51.612;7.510;2023-10-13T14:01:48;25.60;1.00
1592;DHT22;789;51.612;7.510;2023-10-13T14:04:16;25.60;1.00
1592;DHT22;789;51.612;7.510;2023-10-13T14:06:44;25.50;1.00
1592;DHT22;789;51.612;7.510;2023-10-13T14:09:13;25.40;1.00
1592;DHT22;789;51.612;7.510;2023-10-13T14:11:58;25.40;1.00
1592;DHT22;789;51.612;7.510;2023-10-13T14:14:42;25.60;1.00
1592;DHT22;789;51.612;7.510;2023-10-13T14:17:22;25.30;1.00
1592;DHT22;789;51.612;7.510;2023-10-13T14:19:55;25.30;1.00
1592;DHT22;789;51.612;7.510;2023-10-13T14:22:22;25.20;1.00
1592;DHT22;789;51.612;7.510;2023-10-13T14:24:50;25.30;1.00
1592;DHT22;789;51.612;7.510;2023-10-13T14:27:20;25.30;1.00
1592;DHT22;789;51.612;7.510;2023-10-13T14:29:48;25.30;1.00
1592;DHT22;789;51.612;7.510;2023-10-13T14:32:19;25.40;1.00
1592;DHT22;789;51.612;7.510;2023-10-13T14:34:51;25.40;1.00
1592;DHT22;789;51.612;7.510;2023-10-13T14:37:22;25.50;1.00
1592;DHT22;789;51.612;7.510;2023-10-13T14:39:54;25.50;1.00
1592;DHT22;789;51.612;7.510;2023-10-13T14:42:23;25.40;1.00
1592;DHT22;789;51.612;7.510;2023-10-13T14:44:49;25.30;1.00
1592;DHT22;789;51.612;7.510;2023-10-13T14:47:21;25.30;1.00
1592;DHT22;789;51.612;7.510;2023-10-13T14:49:52;25.10;1.00
1592;DHT22;789;51.612;7.510;2023-10-13T14:52:25;25.10;1.00
1592;DHT22;789;51.612;7.510;2023-10-13T14:54:52;25.00;1.00
1592;DHT22;789;51.612;7.510;2023-10-13T14:57:21;25.00;1.00
1592;DHT22;789;51.612;7.510;2023-10-13T14:59:51;24.90;1.00
1592;DHT22;789;51.612;7.510;2023-10-13T15:02:20;24.90;1.00
1592;DHT22;789;51.612;7.510;2023-10-13T15:04:48;24.80;1.00
1592;DHT22;789;51.612;7.510;2023-10-13T15:07:16;24.80;1.00
1592;DHT22;789;51.612;7.510;2023-10-13T15:09:45;24.70;1.00
1592;DHT22;789;51.612;7.510;2023-10-13T15:12:12;24.70;1.00
1592;DHT22;789;51.612;7.510;2023-10-13T15:14:39;24.70;1.00
1592;DHT22;789;51.612;7.510;2023-10-13T15:17:08;24.60;1.00
1592;DHT22;789;51.612;7.510;2023-10-13T15:19:35;24.60;1.00
1592;DHT22;789;51.612;7.510;2023-10-13T15:22:04;24.50;1.00
1592;DHT22;789;51.612;7.510;2023-10-13T15:24:42;24.30;1.00
1592;DHT22;789;51.612;7.510;2023-10-13T15:27:10;24.30;1.00
1592;DHT22;789;51.612;7.510;2023-10-13T15:29:37;24.20;1.00
1592;DHT22;789;51.612;7.510;2023-10-13T15:32:05;24.20;1.00
1592;DHT22;789;51.612;7.510;2023-10-13T15:34:52;24.10;1.00
1592;DHT22;789;51.612;7.510;2023-10-13T15:37:19;24.10;1.00
1592;DHT22;789;51.612;7.510;2023-10-13T15:39:52;24.10;1.00
1592;DHT22;789;51.612;7.510;2023-10-13T15:42:19;24.10;1.00
1592;DHT22;789;51.612;7.510;2023-10-13T15:44:46;24.10;1.00
1592;DHT22;789;51.612;7.510;2023-10-13T15:47:14;24.00;1.00
1592;DHT22;789;51.612;7.510;2023-10-13T15:49:40;24.00;1.00
1592;DHT22;789;51.612;7.510;2023-10-13T15:52:08;24.10;1.00
1592;DHT22;789;51.612;7.510;2023-10-13T15:54:35;24.00;1.00
1592;DHT22;789;51.612;7.510;2023-10-13T15:57:04;23.90;1.00
1592;DHT22;789;51.612;7.510;2023-10-13T15:59:32;23.90;1.00
1592;DHT22;789;51.612;7.510;2023-10-13T16:02:00;23.90;1.00
1592;DHT22;789;51.612;7.510;2023-10-13T16:04:29;23.90;1.00
1592;DHT22;789;51.612;7.510;2023-10-13T16:06:56;23.90;1.00
1592;DHT22;789;51.612;7.510;2023-10-13T16:09:22;23.90;1.00
1592;DHT22;789;51.612;7.510;2023-10-13T16:11:50;23.80;1.00
1592;DHT22;789;51.612;7.510;2023-10-13T16:14:18;23.80;1.00
1592;DHT22;789;51.612;7.510;2023-10-13T16:16:47;23.80;1.00
1592;DHT22;789;51.612;7.510;2023-10-13T16:19:19;23.90;1.00
1592;DHT22;789;51.612;7.510;2023-10-13T16:21:47;23.90;1.00
1592;DHT22;789;51.612;7.510;2023-10-13T16:24:14;23.80;1.00
1592;DHT22;789;51.612;7.510;2023-10-13T16:26:45;23.80;1.00
1592;DHT22;789;51.612;7.510;2023-10-13T16:29:14;23.80;1.00
1592;DHT22;789;51.612;7.510;2023-10-13T16:31:43;23.80;1.00
1592;DHT22;789;51.612;7.510;2023-10-13T16:34:11;23.70;1.00
1592;DHT22;789;51.612;7.510;2023-10-13T16:36:41;23.70;1.00
1592;DHT22;789;51.612;7.510;2023-10-13T16:39:08;23.60;1.00
1592;DHT22;789;51.612;7.510;2023-10-13T16:41:35;23.60;1.00
1592;DHT22;789;51.612;7.510;2023-10-13T16:44:02;23.50;1.00
1592;DHT22;789;51.612;7.510;2023-10-13T16:46:35;23.50;1.00
1592;DHT22;789;51.612;7.510;2023-10-13T16:49:03;23.60;1.00
1592;DHT22;789;51.612;7.510;2023-10-13T16:51:32;23.60;1.00
1592;DHT22;789;51.612;7.510;2023-10-13T16:53:59;23.60;1.00
1592;DHT22;789;51.612;7.510;2023-10-13T16:56:26;23.60;1.00
1592;DHT22;789;51.612;7.510;2023-10-13T16:58:53;23.60;1.00
1592;DHT22;789;51.612;7.510;2023-10-13T17:01:21;23.50;1.00
1592;DHT22;789;51.612;7.510;2023-10-13T17:03:48;23.50;1.00
1592;DHT22;789;51.612;7.510;2023-10-13T17:06:17;23.50;1.00
1592;DHT22;789;51.612;7.510;2023-10-13T17:08:44;23.40;1.00
1592;DHT22;789;51.612;7.510;2023-10-13T17:11:12;23.40;1.00
1592;DHT22;789;51.612;7.510;2023-10-13T17:13:40;23.30;1.00
1592;DHT22;789;51.612;7.510;2023-10-13T17:16:11;23.30;1.00